Time;durP1;ratioP1;P1;durP2;ratioP2;P2;SDS_P1;SDS_P2;PMS_P1;PMS_P2;Temp;Humidity;BMP_temperature;BMP_pressure;BME280_temperature;BME280_humidity;BME280_pressure;Samples;Min_cycle;Max_cycle;Signal;HPM_P1;HPM_P2
2022/05/20 00:00:27;;;;;;;5.53;2.08;;;;;;;14.76;39.83;100638.84;7636123;32;39279;-78
2022/05/20 00:04:43;;;;;;;3.42;2.10;;;;;;;14.74;39.94;100638.31;7654803;32;39903;-77
2022/05/20 00:08:59;;;;;;;9.45;2.40;;;;;;;14.52;42.24;100647.69;7644511;32;38721;-77
2022/05/20 00:13:16;;;;;;;6.40;1.87;;;;;;;14.84;40.80;100632.81;7650870;32;37132;-78
2022/05/20 00:17:32;;;;;;;4.37;2.05;;;;;;;14.56;40.87;100629.56;7642869;32;38439;-78
2022/05/20 00:21:48;;;;;;;5.22;2.15;;;;;;;14.43;42.39;100624.63;7657094;32;41292;-77
2022/05/20 00:26:05;;;;;;;2.95;2.30;;;;;;;14.43;43.06;100635.62;7643195;32;38101;-78
2022/05/20 00:30:21;;;;;;;4.65;2.40;;;;;;;14.57;42.25;100622.97;7641677;32;36278;-78
2022/05/20 00:34:37;;;;;;;3.55;1.98;;;;;;;14.29;43.27;100618.91;7642673;32;39036;-78
2022/05/20 00:38:53;;;;;;;3.95;2.10;;;;;;;14.25;42.92;100626.87;7646609;32;39835;-78
2022/05/20 00:43:12;;;;;;;3.12;2.28;;;;;;;14.27;43.65;100621.09;7647199;32;37094;-78
2022/05/20 00:47:28;;;;;;;3.42;1.92;;;;;;;14.43;44.45;100610.91;7643792;32;38077;-78
2022/05/20 00:51:53;;;;;;;4.45;2.08;;;;;;;14.00;45.33;100611.25;7647325;32;40007;-78
2022/05/20 00:56:12;;;;;;;6.70;2.20;;;;;;;14.33;42.54;100599.97;7649320;32;40269;-77
2022/05/20 01:00:30;;;;;;;4.97;2.22;;;;;;;14.04;42.93;100593.16;7635952;32;38022;-78
2022/05/20 01:04:48;;;;;;;3.37;2.22;;;;;;;14.02;43.57;100602.75;7649973;32;37072;-78
2022/05/20 01:09:04;;;;;;;7.55;2.65;;;;;;;14.37;42.67;100598.34;7642620;32;38237;-78
2022/05/20 01:13:23;;;;;;;4.40;2.08;;;;;;;13.96;44.46;100601.94;7644335;32;39902;-78
2022/05/20 01:17:39;;;;;;;5.03;1.90;;;;;;;13.68;44.84;100593.16;7649230;32;38529;-77
2022/05/20 01:21:55;;;;;;;3.95;2.15;;;;;;;13.57;44.94;100596.16;7633467;32;37102;-78
2022/05/20 01:26:11;;;;;;;3.40;2.10;;;;;;;13.79;44.69;100591.25;7644135;32;39908;-77
2022/05/20 01:30:29;;;;;;;6.05;2.50;;;;;;;13.46;45.35;100592.59;7653039;32;39865;-77
2022/05/20 01:34:46;;;;;;;4.68;2.33;;;;;;;13.67;45.35;100587.94;7641604;32;38811;-77
2022/05/20 01:39:02;;;;;;;4.87;2.40;;;;;;;13.53;46.16;100583.00;7643312;32;37083;-77
2022/05/20 01:43:48;;;;;;;8.77;2.30;;;;;;;13.57;45.78;100576.97;7639629;32;40100;-78
2022/05/20 01:48:17;;;;;;;4.70;2.25;;;;;;;13.68;45.68;100567.69;7636139;32;39874;-78
2022/05/20 01:52:45;;;;;;;3.95;2.08;;;;;;;13.60;45.49;100562.75;7637132;32;38600;-78
2022/05/20 01:57:31;;;;;;;3.60;2.17;;;;;;;13.69;45.71;100558.34;7631044;32;37991;-77
2022/05/20 02:01:54;;;;;;;6.57;2.58;;;;;;;13.41;47.13;100556.97;7648292;32;39441;-77
2022/05/20 02:06:18;;;;;;;4.55;2.42;;;;;;;13.22;47.93;100576.63;7641151;32;40815;-77
2022/05/20 02:10:39;;;;;;;3.65;2.12;;;;;;;13.17;49.08;100573.88;7638432;32;38055;-77
2022/05/20 02:15:07;;;;;;;5.03;2.33;;;;;;;13.10;49.36;100571.38;7652303;32;37874;-78
2022/05/20 02:19:31;;;;;;;3.55;2.33;;;;;;;13.55;48.54;100563.56;7639545;32;39405;-78
2022/05/20 02:23:52;;;;;;;5.00;2.60;;;;;;;13.09;50.13;100556.06;7646635;32;40247;-77
2022/05/20 02:28:25;;;;;;;4.87;2.30;;;;;;;13.11;50.06;100559.34;7642876;32;38713;-77
2022/05/20 02:32:49;;;;;;;4.45;2.53;;;;;;;13.45;48.99;100547.94;7645456;32;37834;-75
2022/05/20 02:37:27;;;;;;;5.12;2.00;;;;;;;13.33;49.45;100541.87;7646743;32;39049;-78
2022/05/20 02:41:46;;;;;;;2.65;2.03;;;;;;;13.59;52.25;100552.88;7634326;32;40897;-77
2022/05/20 02:46:02;;;;;;;3.65;2.42;;;;;;;13.55;49.94;100541.63;7646072;32;37945;-78
2022/05/20 02:50:19;;;;;;;5.93;1.80;;;;;;;13.47;48.93;100540.28;7652376;32;37100;-78
2022/05/20 02:54:35;;;;;;;3.30;2.17;;;;;;;13.54;48.00;100550.97;7634676;32;39017;-77
2022/05/20 03:08:01;;;;;;;3.85;2.00;;;;;;;13.68;47.70;100551.25;7638201;32;37713;-78
2022/05/20 03:12:17;;;;;;;4.72;2.90;;;;;;;13.28;49.83;100561.00;7636457;32;39160;-77
2022/05/20 03:16:34;;;;;;;4.50;2.12;;;;;;;13.38;49.91;100550.09;7633540;32;39868;-77
2022/05/20 03:20:50;;;;;;;4.18;2.08;;;;;;;13.42;50.45;100551.22;7645992;32;36701;-78
2022/05/20 03:25:06;;;;;;;7.03;2.22;;;;;;;13.19;51.47;100546.22;7645541;32;37723;-78
2022/05/20 03:29:23;;;;;;;4.62;2.22;;;;;;;13.50;50.62;100550.69;7641807;32;40025;-77
2022/05/20 03:33:41;;;;;;;3.12;2.10;;;;;;;13.44;51.16;100550.97;7640179;32;39335;-77
2022/05/20 03:37:57;;;;;;;4.95;2.30;;;;;;;13.53;51.32;100541.91;7648658;32;35911;-77
2022/05/20 03:42:13;;;;;;;5.05;2.42;;;;;;;13.58;51.43;100535.63;7652233;32;37087;-78
2022/05/20 03:46:30;;;;;;;7.68;2.42;;;;;;;13.46;52.81;100526.84;7650473;32;39465;-78
2022/05/20 03:50:46;;;;;;;6.60;2.53;;;;;;;13.21;53.71;100536.66;7641434;32;39928;-77
2022/05/20 03:55:03;;;;;;;5.57;2.20;;;;;;;13.24;54.03;100541.56;7641477;32;38686;-77
2022/05/20 03:59:19;;;;;;;6.62;2.47;;;;;;;13.50;53.41;100523.31;7641159;32;37043;-77
2022/05/20 04:03:40;;;;;;;6.22;2.35;;;;;;;13.84;52.34;100516.44;7632307;32;39320;-77
2022/05/20 04:07:56;;;;;;;6.12;2.40;;;;;;;13.65;53.67;100522.47;7633067;32;38995;-76
2022/05/20 04:12:28;;;;;;;4.22;2.50;;;;;;;13.38;54.79;100530.94;7658517;32;37994;-77
2022/05/20 04:16:44;;;;;;;5.60;2.85;;;;;;;13.62;54.25;100530.41;7655367;32;37833;-77
2022/05/20 04:21:01;;;;;;;4.87;2.33;;;;;;;13.66;54.51;100531.50;7632191;32;40166;-77
2022/05/20 04:25:17;;;;;;;7.90;2.50;;;;;;;13.75;53.78;100532.59;7633070;32;40596;-77
2022/05/20 04:29:34;;;;;;;4.18;2.37;;;;;;;13.81;54.01;100528.75;7637826;32;38096;-77
2022/05/20 04:33:50;;;;;;;5.45;2.87;;;;;;;13.95;53.30;100529.00;7631991;32;36993;-77
2022/05/20 04:38:06;;;;;;;4.35;2.70;;;;;;;14.21;52.47;100516.09;7645715;32;40013;-76
2022/05/20 04:46:58;;;;;;;7.12;2.28;;;;;;;14.31;52.72;100526.19;7651055;32;37609;-77
2022/05/20 04:51:14;;;;;;;4.85;2.05;;;;;;;14.17;52.30;100522.41;7631672;32;37063;-76
2022/05/20 04:55:31;;;;;;;6.18;2.53;;;;;;;14.32;52.15;100536.06;7631604;32;40296;-77
2022/05/20 04:59:48;;;;;;;8.32;2.50;;;;;;;14.40;52.75;100545.63;7655356;32;40908;-77
2022/05/20 05:04:04;;;;;;;5.82;2.33;;;;;;;14.60;52.49;100556.56;7657540;32;38007;-77
2022/05/20 05:08:20;;;;;;;6.75;2.15;;;;;;;14.92;51.86;100549.88;7641115;32;37931;-77
2022/05/20 05:12:36;;;;;;;4.82;2.35;;;;;;;14.99;51.63;100536.66;7631394;32;39362;-77
2022/05/20 05:16:52;;;;;;;6.85;2.55;;;;;;;15.46;50.57;100539.09;7641094;32;39962;-77
2022/05/20 05:21:12;;;;;;;4.50;2.60;;;;;;;15.50;50.46;100537.41;7631077;32;39163;-77
2022/05/20 05:25:34;;;;;;;4.97;2.58;;;;;;;15.73;49.28;100531.19;7630990;32;37882;-77
2022/05/20 05:29:50;;;;;;;14.65;3.78;;;;;;;15.63;50.35;100506.53;7655653;32;40014;-76
2022/05/20 05:34:06;;;;;;;6.90;3.00;;;;;;;15.47;51.58;100516.00;7656985;32;40018;-77
2022/05/20 05:38:22;;;;;;;7.85;3.60;;;;;;;16.07;49.88;100504.75;7639861;32;38632;-77
2022/05/20 05:42:41;;;;;;;6.03;2.78;;;;;;;15.91;48.19;100526.09;7640363;32;37761;-78
2022/05/20 05:46:57;;;;;;;4.00;2.25;;;;;;;15.69;49.15;100540.28;7640185;32;39029;-78
2022/05/20 05:51:13;;;;;;;6.32;2.55;;;;;;;16.28;45.13;100533.72;7656633;32;40068;-78
2022/05/20 05:55:29;;;;;;;14.02;2.58;;;;;;;16.37;43.84;100539.38;7654921;32;38614;-79
2022/05/20 05:59:45;;;;;;;10.27;3.60;;;;;;;16.80;44.27;100522.91;7656615;32;37889;-79
2022/05/20 06:04:02;;;;;;;6.47;2.50;;;;;;;17.23;44.28;100502.75;7658695;32;39387;-80
2022/05/20 06:08:18;;;;;;;7.45;2.53;;;;;;;17.60;44.97;100490.03;7640661;32;40768;-79
2022/05/20 06:12:34;;;;;;;6.68;2.33;;;;;;;17.42;44.95;100488.97;7633763;32;38058;-77
2022/05/20 06:16:50;;;;;;;10.65;2.60;;;;;;;17.82;45.25;100492.94;7642446;32;37253;-77
2022/05/20 06:21:06;;;;;;;7.00;2.67;;;;;;;17.92;43.71;100503.03;7652213;32;39240;-76
2022/05/20 06:25:22;;;;;;;9.88;2.78;;;;;;;17.81;44.53;100504.28;7636951;32;40109;-76
2022/05/20 06:29:38;;;;;;;4.03;2.53;;;;;;;18.08;44.66;100500.78;7637724;32;38674;-76
2022/05/20 11:43:23;;;;;;;6.32;2.15;;;;;;;30.63;20.23;100317.38;7863295;31;144399;-74
2022/05/20 11:47:46;;;;;;;3.35;1.85;;;;;;;31.53;19.17;100311.13;7838517;32;39698;-76
2022/05/20 11:52:14;;;;;;;;;;;;;;;31.71;18.21;100306.31;7840212;31;38593;-76
2022/05/20 11:56:44;;;;;;;11.27;2.42;;;;;;;31.35;18.89;100297.03;7840372;32;36690;-76
2022/05/20 12:01:00;;;;;;;6.65;1.80;;;;;;;31.37;19.87;100295.41;7839396;31;38899;-76
2022/05/20 12:05:20;;;;;;;6.22;1.85;;;;;;;30.64;20.12;100292.84;7838782;31;39940;-77
2022/05/20 12:09:47;;;;;;;4.18;1.80;;;;;;;31.77;19.67;100284.97;7839803;31;38737;-78
2022/05/20 12:54:59;;;;;;;3.78;2.12;;;;;;;31.80;20.79;100247.50;7794076;32;169482;-75
2022/05/20 12:59:21;;;;;;;5.25;1.90;;;;;;;33.23;18.63;100236.75;7783988;32;39838;-76
2022/05/20 13:03:46;;;;;;;5.78;1.92;;;;;;;32.96;18.76;100233.72;7784122;32;38977;-75
2022/05/20 13:08:07;;;;;;;3.47;1.77;;;;;;;33.36;18.33;100222.09;7784119;32;36579;-77
2022/05/20 13:12:24;;;;;;;3.70;2.05;;;;;;;33.04;17.47;100226.00;7783046;32;40021;-80
2022/05/20 13:16:45;;;;;;;5.12;1.80;;;;;;;33.12;17.86;100219.06;7784315;32;40060;-77
2022/05/20 13:21:08;;;;;;;2.33;1.67;;;;;;;32.72;19.26;100227.84;7783393;32;38757;-76
2022/05/20 13:25:24;;;;;;;5.65;1.77;;;;;;;32.78;18.15;100214.06;7783434;32;36874;-77
2022/05/20 13:29:43;;;;;;;2.75;1.80;;;;;;;32.33;19.24;100216.75;7789416;32;39025;-76
2022/05/20 13:33:59;;;;;;;4.87;1.75;;;;;;;32.77;19.14;100206.81;7784568;32;39828;-77
2022/05/20 13:38:14;;;;;;;4.82;1.92;;;;;;;33.43;18.29;100202.28;7784147;32;37958;-78
2022/05/20 13:42:32;;;;;;;4.93;1.80;;;;;;;33.17;18.77;100198.88;7781794;32;36856;-75
2022/05/20 13:51:34;;;;;;;4.93;1.92;;;;;;;33.13;18.36;100198.06;7782105;32;39874;-75
2022/05/20 13:55:50;;;;;;;4.18;1.80;;;;;;;33.58;17.89;100169.84;7764729;32;38764;-76
2022/05/20 14:00:28;;;;;;;4.20;1.80;;;;;;;33.48;18.05;100165.87;7696747;32;44884;-75
2022/05/20 14:04:50;;;;;;;4.70;2.00;;;;;;;33.73;19.00;100167.66;7683923;32;39345;-76
2022/05/20 14:09:10;;;;;;;4.10;1.87;;;;;;;33.04;19.25;100163.88;7703131;32;39858;-75
2022/05/20 14:13:37;;;;;;;4.82;1.87;;;;;;;31.83;20.22;100158.53;7706290;32;37704;-75
2022/05/20 14:18:04;;;;;;;5.78;1.90;;;;;;;32.88;19.18;100151.09;7712130;32;36979;-75
2022/05/20 14:22:28;;;;;;;15.43;1.92;;;;;;;32.79;19.59;100142.31;7701584;32;39714;-76
2022/05/20 14:26:50;;;;;;;6.32;2.20;;;;;;;33.31;19.33;100138.63;7684975;32;39775;-77
2022/05/20 14:31:09;;;;;;;2.30;1.70;;;;;;;33.16;19.50;100129.50;7692302;32;38604;-77
2022/05/20 14:35:40;;;;;;;6.28;2.22;;;;;;;33.76;18.54;100124.41;7711564;32;36884;-76
2022/05/20 14:40:02;;;;;;;2.47;1.60;;;;;;;33.70;19.07;100133.78;7712342;32;39155;-77
2022/05/20 14:44:19;;;;;;;5.00;1.73;;;;;;;32.98;19.88;100128.81;7711412;32;40523;-77
2022/05/20 14:48:39;;;;;;;2.45;1.70;;;;;;;33.03;19.81;100123.53;7709393;32;37980;-74
2022/05/20 14:53:44;;;;;;;3.85;1.83;;;;;;;33.21;19.33;100112.09;7711603;32;36907;-77
2022/05/20 14:58:25;;;;;;;2.62;1.62;;;;;;;33.36;19.66;100103.44;7710552;32;38993;-76
2022/05/20 15:02:42;;;;;;;5.37;1.90;;;;;;;33.64;19.54;100099.50;7685267;32;40016;-77
2022/05/20 15:07:01;;;;;;;3.70;1.85;;;;;;;33.61;18.60;100095.47;7683601;32;38029;-77
2022/05/20 15:11:23;;;;;;;10.95;1.98;;;;;;;33.30;19.19;100095.44;7682244;32;37635;-77
2022/05/20 15:15:39;;;;;;;;;;;;;;;33.47;19.51;100095.66;7708103;32;39879;-76
2022/05/20 15:19:55;;;;;;;3.58;1.60;;;;;;;33.70;18.33;100094.19;7700065;32;40314;-75
2022/05/20 15:24:21;;;;;;;3.22;1.70;;;;;;;32.87;19.91;100098.66;7710262;32;38019;-74
2022/05/20 15:28:56;;;;;;;8.82;1.80;;;;;;;32.52;19.67;100089.25;7682964;32;37572;-75
2022/05/20 15:37:46;;;;;;;2.80;1.50;;;;;;;33.31;19.38;100079.31;7709475;32;39894;-76
2022/05/20 15:42:03;;;;;;;4.75;1.50;;;;;;;33.13;19.56;100073.81;7710249;32;37964;-75
2022/05/20 15:46:19;;;;;;;2.12;1.62;;;;;;;32.53;19.93;100073.94;7690469;32;36974;-75
2022/05/20 15:50:36;;;;;;;2.47;1.50;;;;;;;32.91;19.83;100079.69;7683774;32;39339;-77
2022/05/20 15:54:57;;;;;;;6.55;1.80;;;;;;;32.80;21.03;100064.06;7684346;32;39691;-75
2022/05/20 15:59:14;;;;;;;2.83;1.53;;;;;;;33.26;19.78;100060.78;7684226;32;35930;-76
2022/05/20 16:03:30;;;;;;;2.33;1.30;;;;;;;32.71;20.57;100056.88;7706741;32;36867;-76
2022/05/20 16:07:59;;;;;;;2.92;1.67;;;;;;;33.25;20.36;100035.78;7698500;32;39102;-76
2022/05/20 16:12:17;;;;;;;2.08;1.67;;;;;;;32.77;19.94;100026.16;7695326;32;39951;-76
2022/05/20 16:16:34;;;;;;;4.62;1.70;;;;;;;32.85;20.36;100013.59;7701949;32;36954;-75
2022/05/20 16:20:50;;;;;;;3.72;1.95;;;;;;;32.51;20.35;100003.03;7683475;32;36688;-75
2022/05/20 16:25:07;;;;;;;4.85;1.45;;;;;;;32.64;20.92;99994.06;7682376;32;39032;-74
2022/05/20 16:29:23;;;;;;;3.80;1.67;;;;;;;32.83;21.16;99979.34;7694098;32;39913;-74
2022/05/20 16:33:39;;;;;;;6.80;2.00;;;;;;;32.29;21.41;99984.66;7688793;32;38885;-73
2022/05/20 16:37:56;;;;;;;2.67;2.15;;;;;;;31.91;21.45;99993.78;7705740;32;36831;-74
2022/05/20 16:42:14;;;;;;;3.75;1.50;;;;;;;31.12;23.09;99993.37;7709471;32;39272;-74
2022/05/20 16:46:32;;;;;;;5.85;1.90;;;;;;;31.11;23.28;99991.75;7702404;32;39514;-75
2022/05/20 16:50:49;;;;;;;3.05;1.62;;;;;;;31.17;23.13;99995.75;7682603;32;37869;-74
2022/05/20 16:55:05;;;;;;;8.57;1.95;;;;;;;30.94;24.25;99990.59;7681266;32;36823;-75
2022/05/20 17:03:56;;;;;;;5.78;2.10;;;;;;;31.31;24.06;99989.25;7682909;32;39926;-75
2022/05/20 17:08:13;;;;;;;4.37;2.17;;;;;;;31.19;24.91;99982.88;7683122;32;38687;-75
2022/05/20 17:12:29;;;;;;;5.25;2.00;;;;;;;31.65;24.00;99981.06;7682229;32;36899;-73
2022/05/20 17:16:47;;;;;;;4.03;1.60;;;;;;;30.76;24.38;99976.53;7682685;32;39918;-74
2022/05/20 17:24:21;;;;;;;5.18;1.85;;;;;;;30.92;24.61;99964.84;7685195;32;39898;-74
2022/05/20 17:25:40;;;;;;;7.62;2.28;;;;;;;30.59;25.45;99962.09;7703358;32;38670;-76
2022/05/20 17:30:00;;;;;;;3.65;1.73;;;;;;;30.27;26.11;99962.91;7693005;32;38026;-75
2022/05/20 17:34:16;;;;;;;10.32;2.08;;;;;;;30.10;26.13;99958.88;7701361;32;39090;-75
2022/05/20 17:38:32;;;;;;;2.85;1.58;;;;;;;30.25;26.19;99956.06;7698546;32;39858;-76
2022/05/20 17:42:48;;;;;;;4.53;2.10;;;;;;;29.96;26.31;99959.69;7704502;32;38740;-75
2022/05/20 17:47:05;;;;;;;6.78;2.10;;;;;;;30.05;26.56;99966.94;7691312;32;36700;-79
2022/05/20 17:51:21;;;;;;;7.75;2.20;;;;;;;30.03;27.01;99961.69;7701368;32;39175;-79
2022/05/20 17:55:37;;;;;;;8.20;2.08;;;;;;;29.90;28.36;99961.28;7686353;32;39976;-81
2022/05/20 17:59:53;;;;;;;6.72;2.10;;;;;;;29.73;28.77;99950.78;7687048;32;38137;-81
2022/05/20 18:04:11;;;;;;;9.20;2.30;;;;;;;29.50;29.06;99965.97;7691891;32;36892;-78
2022/05/20 18:08:28;;;;;;;8.82;2.40;;;;;;;29.51;28.63;99970.41;7701187;32;39992;-79
2022/05/20 18:12:44;;;;;;;10.75;2.53;;;;;;;29.20;29.91;99969.06;7703768;32;37769;-79
2022/05/20 18:17:02;;;;;;;6.45;2.75;;;;;;;29.07;30.29;99953.75;7698536;32;38018;-78
2022/05/20 18:21:18;;;;;;;5.37;2.45;;;;;;;28.88;30.35;99954.87;7697101;32;37471;-78
2022/05/20 18:25:49;;;;;;;5.68;2.28;;;;;;;28.47;30.89;99948.16;7697861;32;39732;-78
2022/05/20 18:30:06;;;;;;;7.20;2.62;;;;;;;28.21;31.71;99943.56;7704888;32;39882;-78
2022/05/20 18:39:30;;;;;;;6.03;2.42;;;;;;;28.03;30.88;99951.03;7699169;32;37537;-79
2022/05/20 18:43:39;;;;;;;5.50;2.17;;;;;;;27.64;32.60;99948.63;7684728;32;39094;-78
2022/05/20 18:47:56;;;;;;;11.95;2.72;;;;;;;27.50;32.92;99935.28;7701086;32;40904;-79
2022/05/20 18:52:12;;;;;;;11.27;3.87;;;;;;;27.29;33.04;99953.44;7702132;32;38701;-80
2022/05/20 18:56:28;;;;;;;6.15;2.80;;;;;;;27.23;32.31;99940.13;7686702;32;36785;-76
2022/05/20 19:00:45;;;;;;;10.25;2.80;;;;;;;27.08;32.50;99923.19;7706424;32;39110;-77
2022/05/20 19:05:03;;;;;;;4.72;1.87;;;;;;;26.98;33.17;99923.84;7695218;32;40699;-78
2022/05/20 19:09:19;;;;;;;4.93;1.95;;;;;;;26.96;33.61;99915.84;7705705;32;38670;-80
2022/05/20 19:13:35;;;;;;;5.60;2.53;;;;;;;26.52;35.00;99912.81;7697531;32;36986;-83
2022/05/20 19:17:52;;;;;;;7.93;2.35;;;;;;;26.40;35.05;99903.44;7700962;32;39721;-71
2022/05/20 19:22:12;;;;;;;4.45;2.37;;;;;;;26.30;35.30;99900.50;7699772;32;40684;-76
2022/05/20 19:26:28;;;;;;;10.30;4.00;;;;;;;26.11;35.58;99895.81;7703109;32;38467;-73
2022/05/20 19:30:46;;;;;;;9.90;4.82;;;;;;;25.77;36.33;99904.00;7685073;32;37010;-73
2022/05/20 19:35:04;;;;;;;10.82;5.65;;;;;;;25.74;36.34;99908.34;7685085;32;39795;-74
2022/05/20 19:39:20;;;;;;;5.22;3.10;;;;;;;25.44;36.83;99903.41;7689917;32;40694;-73
2022/05/20 19:43:36;;;;;;;4.40;2.40;;;;;;;25.23;36.95;99892.63;7684695;32;37993;-73
2022/05/20 19:47:52;;;;;;;2.95;1.83;;;;;;;25.27;36.82;99887.16;7684916;32;37464;-75
2022/05/20 19:52:08;;;;;;;4.62;2.47;;;;;;;25.14;37.18;99885.66;7684126;32;39894;-75
2022/05/20 19:56:25;;;;;;;7.40;2.17;;;;;;;25.05;37.38;99892.25;7684694;32;40852;-74
2022/05/20 20:00:51;;;;;;;6.10;2.45;;;;;;;24.86;37.98;99897.84;7690973;32;38613;-73
2022/05/20 20:05:09;;;;;;;3.60;1.90;;;;;;;24.69;38.28;99904.63;7701491;32;36869;-74
2022/05/20 20:09:25;;;;;;;3.33;1.65;;;;;;;24.49;38.42;99896.22;7684532;32;39264;-73
2022/05/20 20:13:41;;;;;;;7.65;2.00;;;;;;;24.37;38.02;99899.94;7684440;32;40890;-74
2022/05/20 20:17:58;;;;;;;3.60;2.15;;;;;;;24.45;38.06;99894.53;7684382;32;37861;-74
2022/05/20 20:26:49;;;;;;;3.72;1.65;;;;;;;24.12;38.73;99874.25;7684269;32;40050;-73
2022/05/20 20:31:12;;;;;;;6.85;2.17;;;;;;;24.05;38.99;99856.59;7705180;32;39942;-73
2022/05/20 20:35:29;;;;;;;3.08;1.77;;;;;;;23.90;39.41;99858.22;7706446;32;37926;-73
2022/05/20 20:39:45;;;;;;;5.30;2.10;;;;;;;23.77;39.71;99861.06;7684224;32;37763;-73
2022/05/20 20:44:03;;;;;;;3.60;2.10;;;;;;;23.61;40.51;99865.81;7683841;32;39274;-73
2022/05/20 20:48:19;;;;;;;5.60;1.92;;;;;;;23.59;40.60;99859.78;7683648;32;39980;-74
2022/05/20 20:52:36;;;;;;;3.80;1.80;;;;;;;23.25;41.52;99868.47;7686277;32;38648;-74
2022/05/20 20:56:53;;;;;;;4.03;1.98;;;;;;;23.38;40.86;99852.50;7710143;32;37628;-74
2022/05/20 21:01:09;;;;;;;2.92;1.85;;;;;;;23.01;41.73;99854.66;7695685;32;39470;-73
2022/05/20 21:05:25;;;;;;;2.92;1.90;;;;;;;23.05;41.43;99836.09;7685227;32;40072;-74
2022/05/20 21:09:42;;;;;;;5.00;2.20;;;;;;;22.95;41.52;99853.28;7692387;32;37896;-73
2022/05/20 21:13:59;;;;;;;3.53;1.87;;;;;;;22.97;41.35;99859.28;7688526;32;37302;-74
2022/05/20 21:18:16;;;;;;;2.30;1.62;;;;;;;23.06;41.18;99857.22;7694536;32;39969;-74
2022/05/20 21:22:32;;;;;;;5.85;1.90;;;;;;;22.98;41.60;99861.72;7712537;32;40757;-74
2022/05/20 21:26:48;;;;;;;3.45;2.10;;;;;;;22.90;41.60;99864.66;7709259;32;38476;-74
2022/05/20 21:31:04;;;;;;;8.88;2.10;;;;;;;22.81;41.68;99857.25;7685942;32;36885;-74
2022/05/20 21:35:22;;;;;;;3.75;2.00;;;;;;;22.72;41.66;99844.69;7685889;32;40029;-74
2022/05/20 21:39:38;;;;;;;3.95;1.80;;;;;;;22.71;41.56;99837.50;7684882;32;41110;-74
2022/05/20 21:43:58;;;;;;;2.72;1.87;;;;;;;22.71;41.69;99843.88;7685698;32;37938;-74
2022/05/20 21:48:15;;;;;;;3.40;1.83;;;;;;;22.63;41.84;99842.84;7684252;32;36683;-74
2022/05/20 21:52:31;;;;;;;2.67;1.80;;;;;;;22.73;41.81;99826.84;7685420;32;39923;-74
2022/05/20 21:56:48;;;;;;;5.80;2.00;;;;;;;22.52;42.46;99827.84;7685624;32;39919;-74
2022/05/20 22:10:16;;;;;;;2.80;2.00;;;;;;;21.92;43.80;99808.13;7712336;32;39878;-72
2022/05/20 22:14:32;;;;;;;2.20;1.98;;;;;;;22.01;43.24;99794.94;7711806;32;40205;-73
2022/05/20 22:18:48;;;;;;;3.62;1.80;;;;;;;22.01;43.00;99786.63;7711987;32;37690;-74
2022/05/20 22:23:04;;;;;;;3.85;1.90;;;;;;;22.00;43.18;99782.22;7707238;32;37588;-74
2022/05/20 22:27:20;;;;;;;3.35;1.80;;;;;;;21.75;43.99;99787.00;7685387;32;39776;-73
2022/05/20 22:31:36;;;;;;;2.92;2.00;;;;;;;21.78;44.12;99779.91;7694106;32;39888;-73
2022/05/20 22:35:53;;;;;;;2.87;2.00;;;;;;;21.80;43.99;99756.22;7685182;32;37859;-72
2022/05/20 22:40:09;;;;;;;3.10;2.00;;;;;;;21.51;44.67;99754.50;7687660;32;37710;-72
2022/05/20 22:44:26;;;;;;;6.47;2.30;;;;;;;21.48;44.78;99752.41;7711718;32;39866;-72
2022/05/20 22:48:42;;;;;;;3.22;2.12;;;;;;;21.31;45.59;99745.09;7710283;32;39763;-73
2022/05/20 22:52:58;;;;;;;9.07;2.35;;;;;;;21.15;46.24;99748.53;7686190;32;38521;-73
2022/05/20 22:57:14;;;;;;;6.12;2.53;;;;;;;21.28;46.07;99752.13;7685451;32;35326;-73
2022/05/20 23:01:36;;;;;;;5.82;2.28;;;;;;;21.25;46.64;99755.59;7694819;32;39168;-73
2022/05/20 23:05:53;;;;;;;4.57;2.50;;;;;;;21.15;47.06;99731.09;7697866;32;39876;-74
2022/05/20 23:10:13;;;;;;;3.90;2.00;;;;;;;21.24;46.55;99723.47;7693289;32;37975;-71
2022/05/20 23:14:49;;;;;;;2.53;1.87;;;;;;;21.35;45.70;99708.03;7693412;32;37222;-73
2022/05/20 23:19:06;;;;;;;4.50;2.05;;;;;;;21.08;45.72;99703.16;7684767;32;40063;-73
2022/05/20 23:23:24;;;;;;;4.28;2.30;;;;;;;21.31;45.27;99704.31;7688007;32;41358;-73
2022/05/20 23:27:40;;;;;;;4.53;2.03;;;;;;;21.10;45.87;99698.06;7691094;32;38712;-74
2022/05/20 23:31:56;;;;;;;4.32;2.42;;;;;;;21.31;45.04;99684.91;7685582;32;37743;-73
2022/05/20 23:36:34;;;;;;;3.87;2.10;;;;;;;21.13;45.44;99675.22;7684541;32;39947;-74
2022/05/20 23:40:52;;;;;;;5.93;2.30;;;;;;;21.13;45.67;99686.31;7699651;32;39968;-73
2022/05/20 23:45:09;;;;;;;3.95;2.28;;;;;;;21.03;46.41;99684.78;7700930;32;37862;-73
2022/05/20 23:49:25;;;;;;;5.72;3.17;;;;;;;20.68;48.86;99684.34;7710934;32;36966;-73
2022/05/20 23:53:41;;;;;;;4.95;2.87;;;;;;;20.82;48.46;99668.25;7697396;32;40096;-73
2022/05/20 23:57:57;;;;;;;5.30;2.70;;;;;;;20.59;49.58;99659.50;7684210;32;40986;-73
